Here is the Quick Look data you requested

The Data originates at the National Weather Service, and is made available here by the UAlbany Department of Atmospheric and Environmental Sciences

Surface Observations

KBDL 130151Z 01006KT 10SM FEW250 M04/M10 A3027 RMK AO2 SLP251 T10441100=
KBDR 130152Z 00000KT 10SM CLR M01/M06 A3026 RMK AO2 SLP246 T10061061=
KDXR 130153Z 00000KT 9SM CLR M04/M07 A3024 RMK AO2 SLP246 T10391072=
KGON 130156Z 01008KT 10SM CLR M01/M09 A3025 RMK AO2 SLP244 T10111089=
KHFD 130153Z 01007KT 10SM CLR M02/M09 A3027 RMK AO2 SLP250 T10171094=
KHVN 130153Z 00000KT 10SM CLR M02/M07 A3026 RMK AO2 SLP247 T10171067=
KIJD 130152Z AUTO 05004KT 10SM CLR M04/M09 A3027 RMK AO2 SLP252 T10391094=
KMMK 130153Z AUTO 00000KT 10SM CLR M01/M08 A3027 RMK AO2 SLP250 T10111078=
KOXC 130151Z 34003KT 10SM CLR M03/M07 A3023 RMK AO2 SLP257 T10281067=